Maplewood, Maine
Current Conditions -  °F | °C
As of 6:44 PM on Wednesday 22 Oct 2014 (Local Time) from KIZG Reporting Station
Light Rain Light Rain  
Wind Chill: 41°   Ceiling: 1500
Heat Index: 47°   Visibility: 10mi
Dew Point: 43°   Wind: 15mph
Humidity: 86%   Direction: 30°NNE
Pressure: 30.1"   Gusts: 26mph
Location:  43.7658°N, 70.9172°W
Report Text: KIZG 222244Z AUTO 03013G23KT 10SM -RA OVC015 08/06 A3010 RMK AO2 P0004 T00830061
Loading
Personal Weather Stations






























Interactive Weather Map
Tropical Storm Tracking
New forecast layout! Learn more

10-Day Weather Forecast

Advertisements
Track Severe Weather on mobile